createdAt,value
2022-08-26T00:00:31.295Z,26.333333
2022-08-26T00:05:33.813Z,26.333333
2022-08-26T00:10:15.959Z,26.533333
2022-08-26T00:15:18.916Z,26.400000
2022-08-26T00:20:21.613Z,25.866667
2022-08-26T00:25:23.730Z,25.428571
2022-08-26T00:30:26.688Z,26.400000
2022-08-26T00:35:28.990Z,25.533333
2022-08-26T00:40:31.636Z,26.600000
2022-08-26T00:45:34.397Z,26.533333
2022-08-26T00:50:36.004Z,26.466667
2022-08-26T00:55:20.393Z,26.266667
2022-08-26T01:00:20.634Z,27.866667
2022-08-26T01:05:23.632Z,28.571429
2022-08-26T01:10:26.787Z,29.333333
2022-08-26T01:15:29.189Z,28.933333
2022-08-26T01:20:31.727Z,29.000000
2022-08-26T01:25:34.114Z,29.333333
2022-08-26T01:30:16.412Z,29.800000
2022-08-26T01:35:18.642Z,29.000000
2022-08-26T01:40:21.276Z,30.400000
2022-08-26T01:45:23.581Z,31.000000
2022-08-26T01:50:28.219Z,30.800000
2022-08-26T01:55:33.490Z,30.933333
2022-08-26T02:00:30.716Z,31.733333
2022-08-26T02:05:32.910Z,33.066667
2022-08-26T02:10:35.089Z,32.200000
2022-08-26T02:15:17.280Z,32.266667
2022-08-26T02:20:19.630Z,34.133333
2022-08-26T02:25:21.652Z,36.133333
2022-08-26T02:30:23.789Z,36.928571
2022-08-26T02:35:26.318Z,37.266667
2022-08-26T02:40:28.527Z,37.933333
2022-08-26T02:45:30.999Z,37.933333
2022-08-26T02:50:33.045Z,38.533333
2022-08-26T02:55:34.961Z,37.933333
2022-08-26T03:00:16.998Z,38.666667
2022-08-26T03:05:19.658Z,38.333333
2022-08-26T03:10:22.329Z,38.428571
2022-08-26T03:15:24.816Z,40.466667
2022-08-26T03:20:27.732Z,40.866667
2022-08-26T03:25:30.410Z,41.133333
2022-08-26T03:30:33.224Z,42.066667
2022-08-26T03:35:35.608Z,43.666667
2022-08-26T03:40:20.189Z,44.466667
2022-08-26T03:45:20.683Z,45.066667
2022-08-26T03:50:24.345Z,44.785714
2022-08-26T03:55:25.900Z,43.800000
2022-08-26T04:00:28.462Z,43.000000
2022-08-26T04:05:31.474Z,42.666667
2022-08-26T04:10:33.943Z,42.066667
2022-08-26T04:15:16.113Z,40.133333
2022-08-26T04:20:18.830Z,37.866667
2022-08-26T04:25:21.364Z,37.333333
2022-08-26T04:30:24.531Z,37.642857
2022-08-26T04:35:27.496Z,38.000000
2022-08-26T04:40:29.999Z,39.200000
2022-08-26T04:45:32.708Z,40.733333
2022-08-26T04:50:35.248Z,40.933333
2022-08-26T04:55:17.276Z,41.266667
2022-08-26T05:00:19.927Z,42.000000
2022-08-26T05:05:22.600Z,42.428571
2022-08-26T05:10:24.992Z,44.000000
2022-08-26T05:15:27.495Z,44.800000
2022-08-26T05:20:30.358Z,45.266667
2022-08-26T05:25:32.662Z,43.333333
2022-08-26T05:30:36.045Z,43.200000
2022-08-26T05:35:18.974Z,44.733333
2022-08-26T05:40:22.213Z,45.714286
2022-08-26T05:45:25.225Z,45.400000
2022-08-26T05:50:28.092Z,45.066667
2022-08-26T05:55:30.717Z,44.733333
2022-08-26T06:00:33.432Z,44.200000
2022-08-26T06:05:16.547Z,43.400000
2022-08-26T06:10:32.125Z,42.066667
2022-08-26T06:15:21.545Z,40.666667
2022-08-26T06:20:24.244Z,41.357143
2022-08-26T06:25:27.325Z,41.933333
2022-08-26T06:30:30.094Z,41.866667
2022-08-26T06:35:32.918Z,42.200000
2022-08-26T06:40:16.130Z,41.933333
2022-08-26T06:45:18.853Z,41.933333
2022-08-26T06:50:21.962Z,42.133333
2022-08-26T06:55:27.019Z,43.000000
2022-08-26T07:00:28.450Z,43.600000
2022-08-26T07:05:31.157Z,43.933333
2022-08-26T07:10:33.780Z,44.733333
2022-08-26T07:15:15.978Z,45.200000
2022-08-26T07:20:18.396Z,45.066667
2022-08-26T07:25:20.924Z,46.600000
2022-08-26T07:30:23.741Z,47.357143
2022-08-26T07:35:25.739Z,48.800000
2022-08-26T07:40:28.836Z,48.800000
2022-08-26T07:45:30.875Z,48.866667
2022-08-26T07:50:49.914Z,48.800000
2022-08-26T07:55:15.953Z,48.600000
2022-08-26T08:00:18.438Z,49.200000
2022-08-26T08:05:21.201Z,50.066667
2022-08-26T08:10:25.067Z,50.714286
2022-08-26T08:15:26.281Z,49.800000
2022-08-26T08:20:29.054Z,50.333333
2022-08-26T08:25:31.930Z,50.800000
2022-08-26T08:30:34.973Z,52.333333
2022-08-26T08:35:16.147Z,53.333333
2022-08-26T08:40:18.793Z,52.400000
2022-08-26T08:45:20.623Z,51.733333
2022-08-26T08:50:23.231Z,51.285714
2022-08-26T08:55:25.718Z,51.000000
2022-08-26T09:00:30.651Z,49.933333
2022-08-26T09:05:31.109Z,49.000000
2022-08-26T09:10:32.518Z,49.666667
2022-08-26T09:15:34.906Z,49.266667
2022-08-26T09:20:17.517Z,48.600000
2022-08-26T09:25:20.279Z,50.066667
2022-08-26T09:30:22.455Z,49.928571
2022-08-26T09:35:24.681Z,51.066667
2022-08-26T09:40:27.383Z,51.933333
2022-08-26T09:45:29.450Z,54.466667
2022-08-26T09:50:31.924Z,55.266667
2022-08-26T09:55:34.963Z,54.600000
2022-08-26T10:00:17.371Z,53.200000
2022-08-26T10:05:20.132Z,52.866667
2022-08-26T10:10:22.796Z,53.428571
2022-08-26T10:15:25.232Z,51.800000
2022-08-26T10:20:27.973Z,50.666667
2022-08-26T10:25:30.477Z,51.600000
2022-08-26T10:30:33.308Z,55.666667
2022-08-26T10:35:36.072Z,56.333333
2022-08-26T10:40:18.361Z,55.933333
2022-08-26T10:45:20.949Z,56.733333
2022-08-26T10:50:23.461Z,58.500000
2022-08-26T10:55:25.960Z,59.200000
2022-08-26T11:00:28.552Z,59.600000
2022-08-26T11:05:31.078Z,59.066667
2022-08-26T11:10:33.941Z,59.133333
2022-08-26T11:15:16.086Z,60.000000
2022-08-26T11:20:18.578Z,59.733333
2022-08-26T11:25:20.788Z,57.600000
2022-08-26T11:30:24.216Z,59.142857
2022-08-26T11:35:25.949Z,58.733333
2022-08-26T11:40:28.900Z,59.333333
2022-08-26T11:45:32.206Z,61.200000
2022-08-26T11:50:35.187Z,61.266667
2022-08-26T11:55:17.155Z,61.933333
2022-08-26T12:00:22.531Z,61.733333
2022-08-26T12:05:23.472Z,61.785714
2022-08-26T12:10:29.501Z,61.200000
2022-08-26T12:15:29.679Z,60.333333
2022-08-26T12:20:31.157Z,60.400000
2022-08-26T12:25:35.966Z,60.000000
2022-08-26T12:30:17.989Z,61.133333
2022-08-26T12:35:19.639Z,62.000000
2022-08-26T12:40:23.142Z,62.071429
2022-08-26T12:45:25.990Z,61.933333
2022-08-26T12:50:28.073Z,62.200000
2022-08-26T12:55:31.068Z,61.933333
2022-08-26T13:00:33.285Z,61.800000
2022-08-26T13:05:35.896Z,61.133333
2022-08-26T13:10:18.031Z,60.066667
2022-08-26T13:15:21.005Z,61.133333
2022-08-26T13:20:23.308Z,62.142857
2022-08-26T13:25:26.494Z,60.666667
2022-08-26T13:30:29.966Z,62.000000
2022-08-26T13:35:32.282Z,63.533333
2022-08-26T13:40:35.065Z,62.133333
2022-08-26T13:45:17.274Z,61.466667
2022-08-26T13:50:20.149Z,59.866667
2022-08-26T13:55:22.572Z,57.000000
2022-08-26T14:00:25.733Z,55.933333
2022-08-26T14:05:28.113Z,54.933333
2022-08-26T14:10:30.384Z,54.800000
2022-08-26T14:15:32.818Z,54.066667
2022-08-26T14:20:35.308Z,52.800000
2022-08-26T14:25:17.634Z,52.266667
2022-08-26T14:30:20.381Z,52.533333
2022-08-26T14:35:22.966Z,52.571429
2022-08-26T14:40:25.285Z,53.000000
2022-08-26T14:45:27.616Z,52.933333
2022-08-26T14:50:30.279Z,51.666667
2022-08-26T14:55:32.594Z,50.800000
2022-08-26T15:00:35.289Z,49.600000
2022-08-26T15:05:17.402Z,49.266667
2022-08-26T15:10:20.721Z,47.400000
2022-08-26T15:15:22.574Z,46.642857
2022-08-26T15:20:24.456Z,45.800000
2022-08-26T15:25:27.090Z,44.400000
2022-08-26T15:30:29.680Z,44.400000
2022-08-26T15:35:33.034Z,44.200000
2022-08-26T15:40:34.173Z,43.333333
2022-08-26T15:45:26.005Z,42.866667
2022-08-26T15:50:18.649Z,42.133333
2022-08-26T15:55:22.334Z,42.200000
2022-08-26T16:00:24.742Z,41.714286
2022-08-26T16:05:27.132Z,41.866667
2022-08-26T16:10:29.841Z,41.600000
2022-08-26T16:15:32.192Z,41.000000
2022-08-26T16:20:34.904Z,40.933333
2022-08-26T16:25:17.329Z,41.266667
2022-08-26T16:30:20.710Z,40.733333
2022-08-26T16:35:23.450Z,39.928571
2022-08-26T16:40:25.893Z,39.066667
2022-08-26T16:45:29.318Z,38.800000
2022-08-26T16:50:31.690Z,39.066667
2022-08-26T16:55:34.694Z,39.333333
2022-08-26T17:00:17.337Z,39.200000
2022-08-26T17:05:19.948Z,39.266667
2022-08-26T17:10:23.685Z,38.142857
2022-08-26T17:15:25.894Z,37.866667
2022-08-26T17:20:28.609Z,38.466667
2022-08-26T17:25:31.122Z,37.933333
2022-08-26T17:30:33.708Z,38.133333
2022-08-26T17:35:16.319Z,38.266667
2022-08-26T17:40:18.943Z,38.400000
2022-08-26T17:45:21.522Z,38.066667
2022-08-26T17:50:24.251Z,37.642857
2022-08-26T17:55:26.789Z,37.266667
2022-08-26T18:00:29.965Z,37.466667
2022-08-26T18:05:32.438Z,37.266667
2022-08-26T18:10:35.237Z,36.866667
2022-08-26T18:15:17.278Z,36.866667
2022-08-26T18:20:20.822Z,35.133333
2022-08-26T18:25:23.264Z,35.285714
2022-08-26T18:30:26.020Z,35.133333
2022-08-26T18:35:28.955Z,35.533333
2022-08-26T18:40:31.962Z,35.600000
2022-08-26T18:45:34.825Z,34.866667
2022-08-26T18:50:17.414Z,34.933333
2022-08-26T18:55:19.837Z,35.266667
2022-08-26T19:00:22.900Z,33.571429
2022-08-26T19:05:25.991Z,31.733333
2022-08-26T19:10:28.040Z,31.600000
2022-08-26T19:15:31.252Z,31.666667
2022-08-26T19:20:33.091Z,31.733333
2022-08-26T19:25:35.715Z,31.666667
2022-08-26T19:30:18.526Z,32.400000
2022-08-26T19:35:21.218Z,33.266667
2022-08-26T19:40:23.802Z,31.500000
2022-08-26T19:45:26.592Z,31.933333
2022-08-26T19:50:28.930Z,31.466667
2022-08-26T19:55:31.380Z,31.600000
2022-08-26T20:00:34.349Z,31.333333
2022-08-26T20:05:16.528Z,30.866667
2022-08-26T20:10:19.304Z,29.866667
2022-08-26T20:15:21.441Z,30.000000
2022-08-26T20:20:32.652Z,30.000000
2022-08-26T20:25:26.221Z,31.200000
2022-08-26T20:30:28.662Z,29.666667
2022-08-26T20:35:31.334Z,31.466667
2022-08-26T20:40:34.427Z,30.866667
2022-08-26T20:45:16.279Z,32.333333
2022-08-26T20:50:18.824Z,31.133333
2022-08-26T20:55:21.561Z,30.466667
2022-08-26T21:00:26.433Z,29.714286
2022-08-26T21:05:26.277Z,30.733333
2022-08-26T21:10:28.894Z,31.733333
2022-08-26T21:15:31.741Z,30.600000
2022-08-26T21:20:33.828Z,30.066667
2022-08-26T21:25:16.089Z,30.466667
2022-08-26T21:30:18.655Z,29.733333
2022-08-26T21:35:21.389Z,30.400000
2022-08-26T21:40:24.102Z,29.500000
2022-08-26T21:45:27.235Z,30.600000
2022-08-26T21:50:29.888Z,30.800000
2022-08-26T21:55:32.808Z,29.200000
2022-08-26T22:00:36.186Z,29.133333
2022-08-26T22:05:18.732Z,29.733333
2022-08-26T22:10:21.551Z,28.133333
2022-08-26T22:15:25.004Z,29.928571
2022-08-26T22:20:27.736Z,29.266667
2022-08-26T22:25:30.540Z,27.266667
2022-08-26T22:30:33.491Z,28.133333
2022-08-26T22:35:36.056Z,28.600000
2022-08-26T22:40:18.780Z,28.733333
2022-08-26T22:45:22.596Z,27.928571
2022-08-26T22:50:25.346Z,28.933333
2022-08-26T22:55:28.041Z,26.933333
2022-08-26T23:00:32.430Z,25.733333
2022-08-26T23:05:34.451Z,26.000000
2022-08-26T23:10:16.790Z,25.866667
2022-08-26T23:15:19.884Z,26.400000
2022-08-26T23:20:22.458Z,25.357143
2022-08-26T23:25:24.584Z,25.200000
2022-08-26T23:30:27.233Z,26.133333
2022-08-26T23:35:29.669Z,25.800000
2022-08-26T23:40:32.120Z,25.866667
2022-08-26T23:45:34.367Z,24.733333
2022-08-26T23:50:16.825Z,25.133333
2022-08-26T23:55:19.466Z,24.466667
